sensor_id;sensor_type;location;lat;lon;timestamp;P1;durP1;ratioP1;P2;durP2;ratioP2
7001;SDS011;3541;53.230;10.518;2023-03-14T00:01:43;2.17;;;1.60;;
7001;SDS011;3541;53.230;10.518;2023-03-14T00:04:11;3.43;;;1.90;;
7001;SDS011;3541;53.230;10.518;2023-03-14T00:06:37;5.30;;;2.07;;
7001;SDS011;3541;53.230;10.518;2023-03-14T00:09:04;2.70;;;1.80;;
7001;SDS011;3541;53.230;10.518;2023-03-14T00:11:30;3.00;;;1.93;;
7001;SDS011;3541;53.230;10.518;2023-03-14T00:13:57;4.13;;;1.90;;
7001;SDS011;3541;53.230;10.518;2023-03-14T00:16:24;6.23;;;2.27;;
7001;SDS011;3541;53.230;10.518;2023-03-14T00:18:51;5.57;;;2.10;;
7001;SDS011;3541;53.230;10.518;2023-03-14T00:21:19;3.33;;;1.80;;
7001;SDS011;3541;53.230;10.518;2023-03-14T00:23:45;4.83;;;2.20;;
7001;SDS011;3541;53.230;10.518;2023-03-14T00:26:13;3.53;;;2.13;;
7001;SDS011;3541;53.230;10.518;2023-03-14T00:28:42;3.87;;;2.30;;
7001;SDS011;3541;53.230;10.518;2023-03-14T00:31:11;3.50;;;1.70;;
7001;SDS011;3541;53.230;10.518;2023-03-14T00:33:38;3.47;;;1.80;;
7001;SDS011;3541;53.230;10.518;2023-03-14T00:36:06;4.57;;;1.97;;
7001;SDS011;3541;53.230;10.518;2023-03-14T00:38:37;4.67;;;1.90;;
7001;SDS011;3541;53.230;10.518;2023-03-14T00:41:05;3.20;;;1.90;;
7001;SDS011;3541;53.230;10.518;2023-03-14T00:43:33;4.57;;;1.80;;
7001;SDS011;3541;53.230;10.518;2023-03-14T00:45:59;5.23;;;1.73;;
7001;SDS011;3541;53.230;10.518;2023-03-14T00:48:26;2.67;;;1.90;;
7001;SDS011;3541;53.230;10.518;2023-03-14T00:50:53;4.20;;;1.90;;
7001;SDS011;3541;53.230;10.518;2023-03-14T00:53:19;4.77;;;2.03;;
7001;SDS011;3541;53.230;10.518;2023-03-14T00:55:47;3.87;;;2.43;;
7001;SDS011;3541;53.230;10.518;2023-03-14T00:58:15;4.03;;;1.93;;
7001;SDS011;3541;53.230;10.518;2023-03-14T01:00:43;5.90;;;2.27;;
7001;SDS011;3541;53.230;10.518;2023-03-14T01:03:10;3.77;;;2.07;;
7001;SDS011;3541;53.230;10.518;2023-03-14T01:05:38;7.27;;;2.23;;
7001;SDS011;3541;53.230;10.518;2023-03-14T01:08:05;5.43;;;2.30;;
7001;SDS011;3541;53.230;10.518;2023-03-14T01:10:32;4.07;;;1.63;;
7001;SDS011;3541;53.230;10.518;2023-03-14T01:13:00;4.40;;;2.00;;
7001;SDS011;3541;53.230;10.518;2023-03-14T01:15:27;4.33;;;1.97;;
7001;SDS011;3541;53.230;10.518;2023-03-14T01:17:53;3.77;;;2.10;;
7001;SDS011;3541;53.230;10.518;2023-03-14T01:20:20;3.27;;;1.90;;
7001;SDS011;3541;53.230;10.518;2023-03-14T01:22:46;5.37;;;2.03;;
7001;SDS011;3541;53.230;10.518;2023-03-14T01:25:14;4.23;;;2.07;;
7001;SDS011;3541;53.230;10.518;2023-03-14T01:27:41;4.17;;;2.00;;
7001;SDS011;3541;53.230;10.518;2023-03-14T01:30:10;2.93;;;2.17;;
7001;SDS011;3541;53.230;10.518;2023-03-14T01:32:38;4.40;;;1.93;;
7001;SDS011;3541;53.230;10.518;2023-03-14T01:35:05;5.40;;;2.10;;
7001;SDS011;3541;53.230;10.518;2023-03-14T01:37:32;5.30;;;2.30;;
7001;SDS011;3541;53.230;10.518;2023-03-14T01:39:59;5.90;;;2.73;;
7001;SDS011;3541;53.230;10.518;2023-03-14T01:42:26;6.87;;;3.00;;
7001;SDS011;3541;53.230;10.518;2023-03-14T01:44:53;5.53;;;2.30;;
7001;SDS011;3541;53.230;10.518;2023-03-14T01:47:23;3.47;;;2.00;;
7001;SDS011;3541;53.230;10.518;2023-03-14T01:49:51;9.20;;;2.37;;
7001;SDS011;3541;53.230;10.518;2023-03-14T01:52:22;3.10;;;1.97;;
7001;SDS011;3541;53.230;10.518;2023-03-14T01:54:53;4.77;;;2.20;;
7001;SDS011;3541;53.230;10.518;2023-03-14T01:57:22;3.87;;;2.10;;
7001;SDS011;3541;53.230;10.518;2023-03-14T01:59:52;5.97;;;2.40;;
7001;SDS011;3541;53.230;10.518;2023-03-14T02:02:23;4.47;;;2.27;;
7001;SDS011;3541;53.230;10.518;2023-03-14T02:04:52;2.47;;;1.90;;
7001;SDS011;3541;53.230;10.518;2023-03-14T02:07:20;3.33;;;2.10;;
7001;SDS011;3541;53.230;10.518;2023-03-14T02:09:50;5.20;;;2.03;;
7001;SDS011;3541;53.230;10.518;2023-03-14T02:12:17;5.13;;;2.30;;
7001;SDS011;3541;53.230;10.518;2023-03-14T02:14:46;4.00;;;2.40;;
7001;SDS011;3541;53.230;10.518;2023-03-14T02:17:13;5.67;;;2.33;;
7001;SDS011;3541;53.230;10.518;2023-03-14T02:19:50;6.70;;;3.30;;
7001;SDS011;3541;53.230;10.518;2023-03-14T02:22:26;7.53;;;2.97;;
7001;SDS011;3541;53.230;10.518;2023-03-14T02:24:55;6.30;;;2.40;;
7001;SDS011;3541;53.230;10.518;2023-03-14T02:27:30;3.30;;;2.30;;
7001;SDS011;3541;53.230;10.518;2023-03-14T02:29:57;4.70;;;2.53;;
7001;SDS011;3541;53.230;10.518;2023-03-14T02:32:26;5.20;;;2.30;;
7001;SDS011;3541;53.230;10.518;2023-03-14T02:34:55;6.20;;;2.47;;
7001;SDS011;3541;53.230;10.518;2023-03-14T02:37:27;4.30;;;3.10;;
7001;SDS011;3541;53.230;10.518;2023-03-14T02:39:59;3.83;;;2.10;;
7001;SDS011;3541;53.230;10.518;2023-03-14T02:42:26;3.23;;;2.00;;
7001;SDS011;3541;53.230;10.518;2023-03-14T02:44:54;7.83;;;2.60;;
7001;SDS011;3541;53.230;10.518;2023-03-14T02:47:26;4.00;;;2.13;;
7001;SDS011;3541;53.230;10.518;2023-03-14T02:49:56;4.63;;;2.30;;
7001;SDS011;3541;53.230;10.518;2023-03-14T02:52:27;3.27;;;1.93;;
7001;SDS011;3541;53.230;10.518;2023-03-14T02:54:54;5.67;;;2.23;;
7001;SDS011;3541;53.230;10.518;2023-03-14T02:57:20;4.07;;;2.30;;
7001;SDS011;3541;53.230;10.518;2023-03-14T02:59:47;3.73;;;2.33;;
7001;SDS011;3541;53.230;10.518;2023-03-14T03:02:15;5.13;;;2.63;;
7001;SDS011;3541;53.230;10.518;2023-03-14T03:04:41;7.27;;;2.93;;
7001;SDS011;3541;53.230;10.518;2023-03-14T03:07:08;4.63;;;2.57;;
7001;SDS011;3541;53.230;10.518;2023-03-14T03:09:35;5.50;;;2.10;;
7001;SDS011;3541;53.230;10.518;2023-03-14T03:12:01;4.47;;;2.20;;
7001;SDS011;3541;53.230;10.518;2023-03-14T03:14:28;3.30;;;2.03;;
7001;SDS011;3541;53.230;10.518;2023-03-14T03:16:54;3.97;;;2.10;;
7001;SDS011;3541;53.230;10.518;2023-03-14T03:19:22;5.10;;;2.03;;
7001;SDS011;3541;53.230;10.518;2023-03-14T03:21:49;4.70;;;2.40;;
7001;SDS011;3541;53.230;10.518;2023-03-14T03:24:15;6.03;;;2.60;;
7001;SDS011;3541;53.230;10.518;2023-03-14T03:26:42;4.87;;;2.03;;
7001;SDS011;3541;53.230;10.518;2023-03-14T03:29:08;5.20;;;2.53;;
7001;SDS011;3541;53.230;10.518;2023-03-14T03:31:36;6.00;;;2.20;;
7001;SDS011;3541;53.230;10.518;2023-03-14T03:34:03;4.03;;;2.10;;
7001;SDS011;3541;53.230;10.518;2023-03-14T03:36:31;5.60;;;2.10;;
7001;SDS011;3541;53.230;10.518;2023-03-14T03:38:58;4.13;;;2.43;;
7001;SDS011;3541;53.230;10.518;2023-03-14T03:41:24;6.47;;;2.70;;
7001;SDS011;3541;53.230;10.518;2023-03-14T03:43:51;4.47;;;2.43;;
7001;SDS011;3541;53.230;10.518;2023-03-14T03:46:19;5.30;;;2.00;;
7001;SDS011;3541;53.230;10.518;2023-03-14T03:48:45;6.07;;;2.03;;
7001;SDS011;3541;53.230;10.518;2023-03-14T03:51:12;6.10;;;2.40;;
7001;SDS011;3541;53.230;10.518;2023-03-14T03:53:41;6.00;;;2.00;;
7001;SDS011;3541;53.230;10.518;2023-03-14T03:56:08;3.53;;;1.80;;
7001;SDS011;3541;53.230;10.518;2023-03-14T03:58:35;4.27;;;2.20;;
7001;SDS011;3541;53.230;10.518;2023-03-14T04:01:03;5.03;;;2.00;;
7001;SDS011;3541;53.230;10.518;2023-03-14T04:03:30;4.77;;;2.10;;
7001;SDS011;3541;53.230;10.518;2023-03-14T04:05:58;6.37;;;2.10;;
7001;SDS011;3541;53.230;10.518;2023-03-14T04:08:25;7.03;;;2.00;;
7001;SDS011;3541;53.230;10.518;2023-03-14T04:10:54;8.03;;;2.23;;
7001;SDS011;3541;53.230;10.518;2023-03-14T04:13:22;5.97;;;2.30;;
7001;SDS011;3541;53.230;10.518;2023-03-14T04:15:48;6.80;;;2.27;;
7001;SDS011;3541;53.230;10.518;2023-03-14T04:18:15;8.07;;;2.33;;
7001;SDS011;3541;53.230;10.518;2023-03-14T04:20:42;6.07;;;2.20;;
7001;SDS011;3541;53.230;10.518;2023-03-14T04:23:08;5.27;;;2.20;;
7001;SDS011;3541;53.230;10.518;2023-03-14T04:25:35;4.90;;;2.10;;
7001;SDS011;3541;53.230;10.518;2023-03-14T04:28:03;6.30;;;2.20;;
7001;SDS011;3541;53.230;10.518;2023-03-14T04:30:30;7.23;;;2.23;;
7001;SDS011;3541;53.230;10.518;2023-03-14T04:32:56;5.00;;;2.00;;
7001;SDS011;3541;53.230;10.518;2023-03-14T04:35:23;9.80;;;2.70;;
7001;SDS011;3541;53.230;10.518;2023-03-14T04:37:49;3.60;;;2.13;;
7001;SDS011;3541;53.230;10.518;2023-03-14T04:40:17;4.03;;;1.90;;
7001;SDS011;3541;53.230;10.518;2023-03-14T04:42:44;2.40;;;1.63;;
7001;SDS011;3541;53.230;10.518;2023-03-14T04:45:11;6.07;;;1.80;;
7001;SDS011;3541;53.230;10.518;2023-03-14T04:47:38;5.40;;;1.93;;
7001;SDS011;3541;53.230;10.518;2023-03-14T04:50:05;6.23;;;1.80;;
7001;SDS011;3541;53.230;10.518;2023-03-14T04:52:32;4.00;;;1.80;;
7001;SDS011;3541;53.230;10.518;2023-03-14T04:54:58;5.47;;;2.40;;
7001;SDS011;3541;53.230;10.518;2023-03-14T04:57:25;8.13;;;2.07;;
7001;SDS011;3541;53.230;10.518;2023-03-14T04:59:51;6.23;;;2.00;;
7001;SDS011;3541;53.230;10.518;2023-03-14T05:02:19;5.70;;;1.93;;
7001;SDS011;3541;53.230;10.518;2023-03-14T05:04:46;5.07;;;2.00;;
7001;SDS011;3541;53.230;10.518;2023-03-14T05:07:12;3.60;;;1.87;;
7001;SDS011;3541;53.230;10.518;2023-03-14T05:09:39;8.00;;;2.10;;
7001;SDS011;3541;53.230;10.518;2023-03-14T05:12:06;4.83;;;1.97;;
7001;SDS011;3541;53.230;10.518;2023-03-14T05:14:33;4.60;;;2.00;;
7001;SDS011;3541;53.230;10.518;2023-03-14T05:17:00;6.37;;;1.77;;
7001;SDS011;3541;53.230;10.518;2023-03-14T05:19:27;3.07;;;1.50;;
7001;SDS011;3541;53.230;10.518;2023-03-14T05:21:54;5.07;;;1.70;;
7001;SDS011;3541;53.230;10.518;2023-03-14T05:24:21;4.80;;;1.87;;
7001;SDS011;3541;53.230;10.518;2023-03-14T05:26:47;3.47;;;1.60;;
7001;SDS011;3541;53.230;10.518;2023-03-14T05:29:14;3.67;;;1.63;;
7001;SDS011;3541;53.230;10.518;2023-03-14T05:31:41;7.53;;;2.23;;
7001;SDS011;3541;53.230;10.518;2023-03-14T05:34:07;3.80;;;1.67;;
7001;SDS011;3541;53.230;10.518;2023-03-14T05:36:35;4.43;;;1.70;;
7001;SDS011;3541;53.230;10.518;2023-03-14T05:39:02;3.80;;;1.40;;
7001;SDS011;3541;53.230;10.518;2023-03-14T05:41:28;3.93;;;1.53;;
7001;SDS011;3541;53.230;10.518;2023-03-14T05:43:55;4.53;;;1.70;;
7001;SDS011;3541;53.230;10.518;2023-03-14T05:46:21;3.17;;;1.50;;
7001;SDS011;3541;53.230;10.518;2023-03-14T05:48:48;6.77;;;1.67;;
7001;SDS011;3541;53.230;10.518;2023-03-14T05:51:15;5.40;;;1.90;;
7001;SDS011;3541;53.230;10.518;2023-03-14T05:53:43;3.63;;;1.70;;
7001;SDS011;3541;53.230;10.518;2023-03-14T05:56:09;3.53;;;1.43;;
7001;SDS011;3541;53.230;10.518;2023-03-14T05:58:36;5.47;;;1.80;;
7001;SDS011;3541;53.230;10.518;2023-03-14T06:01:03;3.23;;;1.67;;
7001;SDS011;3541;53.230;10.518;2023-03-14T06:03:31;2.73;;;1.70;;
7001;SDS011;3541;53.230;10.518;2023-03-14T06:05:58;3.43;;;1.70;;
7001;SDS011;3541;53.230;10.518;2023-03-14T06:08:25;3.50;;;1.80;;
7001;SDS011;3541;53.230;10.518;2023-03-14T06:10:53;4.27;;;1.73;;
7001;SDS011;3541;53.230;10.518;2023-03-14T06:13:20;3.07;;;1.90;;
7001;SDS011;3541;53.230;10.518;2023-03-14T06:15:47;3.90;;;2.43;;
7001;SDS011;3541;53.230;10.518;2023-03-14T06:18:13;3.60;;;1.67;;
7001;SDS011;3541;53.230;10.518;2023-03-14T06:20:40;2.30;;;1.70;;
7001;SDS011;3541;53.230;10.518;2023-03-14T06:23:07;3.93;;;1.80;;
7001;SDS011;3541;53.230;10.518;2023-03-14T06:25:34;3.43;;;1.70;;
7001;SDS011;3541;53.230;10.518;2023-03-14T06:28:02;4.77;;;1.77;;
7001;SDS011;3541;53.230;10.518;2023-03-14T06:30:28;5.97;;;2.10;;
7001;SDS011;3541;53.230;10.518;2023-03-14T06:32:55;4.97;;;1.83;;
7001;SDS011;3541;53.230;10.518;2023-03-14T06:35:22;3.07;;;1.77;;
7001;SDS011;3541;53.230;10.518;2023-03-14T06:37:49;4.93;;;1.80;;
7001;SDS011;3541;53.230;10.518;2023-03-14T06:40:15;4.37;;;1.83;;
7001;SDS011;3541;53.230;10.518;2023-03-14T06:42:43;4.73;;;1.80;;
7001;SDS011;3541;53.230;10.518;2023-03-14T06:45:11;5.13;;;1.43;;
7001;SDS011;3541;53.230;10.518;2023-03-14T06:47:37;3.27;;;1.80;;
7001;SDS011;3541;53.230;10.518;2023-03-14T06:50:04;3.03;;;1.30;;
7001;SDS011;3541;53.230;10.518;2023-03-14T06:52:32;3.33;;;1.77;;
7001;SDS011;3541;53.230;10.518;2023-03-14T06:54:58;3.37;;;1.70;;
7001;SDS011;3541;53.230;10.518;2023-03-14T06:57:25;4.03;;;1.43;;
7001;SDS011;3541;53.230;10.518;2023-03-14T06:59:52;3.67;;;1.47;;
7001;SDS011;3541;53.230;10.518;2023-03-14T07:02:22;5.40;;;1.83;;
7001;SDS011;3541;53.230;10.518;2023-03-14T07:04:49;6.13;;;1.70;;
7001;SDS011;3541;53.230;10.518;2023-03-14T07:07:15;4.37;;;2.03;;
7001;SDS011;3541;53.230;10.518;2023-03-14T07:09:42;5.67;;;2.03;;
7001;SDS011;3541;53.230;10.518;2023-03-14T07:12:09;5.97;;;2.00;;
7001;SDS011;3541;53.230;10.518;2023-03-14T07:14:35;5.90;;;2.20;;
7001;SDS011;3541;53.230;10.518;2023-03-14T07:17:02;3.40;;;2.00;;
7001;SDS011;3541;53.230;10.518;2023-03-14T07:19:30;6.63;;;2.20;;
7001;SDS011;3541;53.230;10.518;2023-03-14T07:21:56;4.73;;;2.40;;
7001;SDS011;3541;53.230;10.518;2023-03-14T07:24:23;3.80;;;2.13;;
7001;SDS011;3541;53.230;10.518;2023-03-14T07:26:49;6.53;;;2.90;;
7001;SDS011;3541;53.230;10.518;2023-03-14T07:29:16;6.47;;;2.53;;
7001;SDS011;3541;53.230;10.518;2023-03-14T07:31:42;5.60;;;3.47;;
7001;SDS011;3541;53.230;10.518;2023-03-14T07:34:09;5.90;;;2.80;;
7001;SDS011;3541;53.230;10.518;2023-03-14T07:36:37;6.83;;;3.10;;
7001;SDS011;3541;53.230;10.518;2023-03-14T07:39:03;4.40;;;2.43;;
7001;SDS011;3541;53.230;10.518;2023-03-14T07:41:30;6.87;;;2.80;;
7001;SDS011;3541;53.230;10.518;2023-03-14T07:43:57;7.40;;;2.60;;
7001;SDS011;3541;53.230;10.518;2023-03-14T07:46:24;8.63;;;2.87;;
7001;SDS011;3541;53.230;10.518;2023-03-14T07:48:50;4.30;;;2.77;;
7001;SDS011;3541;53.230;10.518;2023-03-14T07:51:17;7.43;;;2.90;;
7001;SDS011;3541;53.230;10.518;2023-03-14T07:53:45;8.77;;;3.07;;
7001;SDS011;3541;53.230;10.518;2023-03-14T07:56:11;7.73;;;3.10;;
7001;SDS011;3541;53.230;10.518;2023-03-14T07:58:38;6.43;;;3.20;;
7001;SDS011;3541;53.230;10.518;2023-03-14T08:01:05;7.07;;;3.43;;
7001;SDS011;3541;53.230;10.518;2023-03-14T08:03:31;9.17;;;3.20;;
7001;SDS011;3541;53.230;10.518;2023-03-14T08:05:58;5.27;;;3.00;;
7001;SDS011;3541;53.230;10.518;2023-03-14T08:08:24;6.57;;;3.60;;
7001;SDS011;3541;53.230;10.518;2023-03-14T08:10:52;10.23;;;4.03;;
7001;SDS011;3541;53.230;10.518;2023-03-14T08:13:19;12.30;;;4.43;;
7001;SDS011;3541;53.230;10.518;2023-03-14T08:15:47;9.87;;;3.70;;
7001;SDS011;3541;53.230;10.518;2023-03-14T08:18:14;6.50;;;3.37;;
7001;SDS011;3541;53.230;10.518;2023-03-14T08:20:40;6.57;;;3.33;;
7001;SDS011;3541;53.230;10.518;2023-03-14T08:23:07;8.87;;;3.30;;
7001;SDS011;3541;53.230;10.518;2023-03-14T08:25:33;7.20;;;4.00;;
7001;SDS011;3541;53.230;10.518;2023-03-14T08:28:01;9.63;;;4.47;;
7001;SDS011;3541;53.230;10.518;2023-03-14T08:30:29;8.73;;;3.20;;
7001;SDS011;3541;53.230;10.518;2023-03-14T08:32:56;10.70;;;3.53;;
7001;SDS011;3541;53.230;10.518;2023-03-14T08:35:23;9.60;;;3.37;;
7001;SDS011;3541;53.230;10.518;2023-03-14T08:37:50;6.90;;;3.10;;
7001;SDS011;3541;53.230;10.518;2023-03-14T08:40:17;6.90;;;2.73;;
7001;SDS011;3541;53.230;10.518;2023-03-14T08:42:44;6.57;;;3.50;;
7001;SDS011;3541;53.230;10.518;2023-03-14T08:45:13;8.23;;;2.70;;
7001;SDS011;3541;53.230;10.518;2023-03-14T08:47:42;8.97;;;4.13;;
7001;SDS011;3541;53.230;10.518;2023-03-14T08:50:09;6.43;;;2.83;;
7001;SDS011;3541;53.230;10.518;2023-03-14T08:52:37;7.80;;;3.33;;
7001;SDS011;3541;53.230;10.518;2023-03-14T08:55:05;6.07;;;3.07;;
7001;SDS011;3541;53.230;10.518;2023-03-14T08:57:33;7.10;;;2.90;;
7001;SDS011;3541;53.230;10.518;2023-03-14T08:59:59;3.00;;;2.37;;
7001;SDS011;3541;53.230;10.518;2023-03-14T09:02:27;4.07;;;2.40;;
7001;SDS011;3541;53.230;10.518;2023-03-14T09:04:54;5.70;;;2.53;;
7001;SDS011;3541;53.230;10.518;2023-03-14T09:07:20;5.57;;;2.63;;
7001;SDS011;3541;53.230;10.518;2023-03-14T09:09:47;5.20;;;2.30;;
7001;SDS011;3541;53.230;10.518;2023-03-14T09:12:13;2.83;;;1.83;;
7001;SDS011;3541;53.230;10.518;2023-03-14T09:14:40;3.20;;;1.80;;
7001;SDS011;3541;53.230;10.518;2023-03-14T09:17:06;5.33;;;2.70;;
7001;SDS011;3541;53.230;10.518;2023-03-14T09:19:35;5.57;;;1.87;;
7001;SDS011;3541;53.230;10.518;2023-03-14T09:22:01;6.10;;;2.00;;
7001;SDS011;3541;53.230;10.518;2023-03-14T09:24:28;6.53;;;1.80;;
7001;SDS011;3541;53.230;10.518;2023-03-14T09:26:55;6.70;;;2.17;;
7001;SDS011;3541;53.230;10.518;2023-03-14T09:29:21;4.33;;;1.83;;
7001;SDS011;3541;53.230;10.518;2023-03-14T09:31:49;3.90;;;2.00;;
7001;SDS011;3541;53.230;10.518;2023-03-14T09:34:16;5.77;;;1.60;;
7001;SDS011;3541;53.230;10.518;2023-03-14T09:36:44;5.70;;;1.80;;
7001;SDS011;3541;53.230;10.518;2023-03-14T09:39:10;3.27;;;1.60;;
7001;SDS011;3541;53.230;10.518;2023-03-14T09:41:37;4.73;;;1.73;;
7001;SDS011;3541;53.230;10.518;2023-03-14T09:44:10;4.00;;;1.67;;
7001;SDS011;3541;53.230;10.518;2023-03-14T09:46:40;4.37;;;1.70;;
7001;SDS011;3541;53.230;10.518;2023-03-14T09:49:11;3.60;;;1.80;;
7001;SDS011;3541;53.230;10.518;2023-03-14T09:51:40;3.60;;;1.47;;
7001;SDS011;3541;53.230;10.518;2023-03-14T09:54:09;2.40;;;1.27;;
7001;SDS011;3541;53.230;10.518;2023-03-14T09:56:52;2.50;;;1.20;;
7001;SDS011;3541;53.230;10.518;2023-03-14T09:59:20;3.10;;;1.40;;
7001;SDS011;3541;53.230;10.518;2023-03-14T10:01:46;2.33;;;1.20;;
7001;SDS011;3541;53.230;10.518;2023-03-14T10:04:17;2.17;;;1.20;;
7001;SDS011;3541;53.230;10.518;2023-03-14T10:06:47;1.77;;;1.20;;
7001;SDS011;3541;53.230;10.518;2023-03-14T10:09:17;3.37;;;2.10;;
7001;SDS011;3541;53.230;10.518;2023-03-14T10:11:49;3.43;;;1.20;;
7001;SDS011;3541;53.230;10.518;2023-03-14T10:14:28;3.27;;;1.20;;
7001;SDS011;3541;53.230;10.518;2023-03-14T10:16:59;1.67;;;1.57;;
7001;SDS011;3541;53.230;10.518;2023-03-14T10:19:31;1.80;;;1.10;;
7001;SDS011;3541;53.230;10.518;2023-03-14T10:22:00;2.20;;;1.20;;
7001;SDS011;3541;53.230;10.518;2023-03-14T10:24:29;2.00;;;1.07;;
7001;SDS011;3541;53.230;10.518;2023-03-14T10:26:58;1.87;;;1.10;;
7001;SDS011;3541;53.230;10.518;2023-03-14T10:29:27;1.80;;;1.23;;
7001;SDS011;3541;53.230;10.518;2023-03-14T10:31:56;5.80;;;1.07;;
7001;SDS011;3541;53.230;10.518;2023-03-14T10:34:27;2.07;;;0.83;;
7001;SDS011;3541;53.230;10.518;2023-03-14T10:36:56;2.33;;;1.20;;
7001;SDS011;3541;53.230;10.518;2023-03-14T10:39:30;2.30;;;1.00;;
7001;SDS011;3541;53.230;10.518;2023-03-14T10:42:04;1.10;;;1.00;;
7001;SDS011;3541;53.230;10.518;2023-03-14T10:44:37;3.90;;;1.37;;
7001;SDS011;3541;53.230;10.518;2023-03-14T10:47:05;1.20;;;1.10;;
7001;SDS011;3541;53.230;10.518;2023-03-14T10:49:32;1.40;;;0.97;;
7001;SDS011;3541;53.230;10.518;2023-03-14T10:52:01;2.50;;;1.43;;
7001;SDS011;3541;53.230;10.518;2023-03-14T10:54:30;2.33;;;1.50;;
7001;SDS011;3541;53.230;10.518;2023-03-14T10:56:57;1.90;;;1.33;;
7001;SDS011;3541;53.230;10.518;2023-03-14T10:59:25;2.00;;;1.50;;
7001;SDS011;3541;53.230;10.518;2023-03-14T11:01:55;3.77;;;1.20;;
7001;SDS011;3541;53.230;10.518;2023-03-14T11:04:36;3.67;;;1.53;;
7001;SDS011;3541;53.230;10.518;2023-03-14T11:07:16;2.00;;;1.60;;
7001;SDS011;3541;53.230;10.518;2023-03-14T11:09:49;3.67;;;2.10;;
7001;SDS011;3541;53.230;10.518;2023-03-14T11:12:28;4.13;;;2.80;;
7001;SDS011;3541;53.230;10.518;2023-03-14T11:15:02;2.87;;;2.20;;
7001;SDS011;3541;53.230;10.518;2023-03-14T11:17:37;1.37;;;1.27;;
7001;SDS011;3541;53.230;10.518;2023-03-14T11:20:16;3.30;;;2.60;;
7001;SDS011;3541;53.230;10.518;2023-03-14T11:22:54;5.13;;;3.17;;
7001;SDS011;3541;53.230;10.518;2023-03-14T11:25:26;3.93;;;3.20;;
7001;SDS011;3541;53.230;10.518;2023-03-14T11:28:00;4.20;;;3.30;;
7001;SDS011;3541;53.230;10.518;2023-03-14T11:30:35;4.47;;;3.17;;
7001;SDS011;3541;53.230;10.518;2023-03-14T11:33:13;4.90;;;4.23;;
7001;SDS011;3541;53.230;10.518;2023-03-14T11:35:42;7.37;;;4.40;;
7001;SDS011;3541;53.230;10.518;2023-03-14T11:38:19;5.90;;;4.67;;
7001;SDS011;3541;53.230;10.518;2023-03-14T11:40:55;6.97;;;5.53;;
7001;SDS011;3541;53.230;10.518;2023-03-14T11:43:24;5.53;;;5.03;;
7001;SDS011;3541;53.230;10.518;2023-03-14T11:45:54;5.07;;;4.43;;
7001;SDS011;3541;53.230;10.518;2023-03-14T11:48:29;4.73;;;3.80;;
7001;SDS011;3541;53.230;10.518;2023-03-14T11:51:04;3.63;;;2.43;;
7001;SDS011;3541;53.230;10.518;2023-03-14T11:53:40;2.73;;;2.07;;
7001;SDS011;3541;53.230;10.518;2023-03-14T11:56:16;1.37;;;1.27;;
7001;SDS011;3541;53.230;10.518;2023-03-14T11:58:51;0.90;;;0.90;;
7001;SDS011;3541;53.230;10.518;2023-03-14T12:01:22;1.20;;;0.90;;
7001;SDS011;3541;53.230;10.518;2023-03-14T12:03:56;1.00;;;0.90;;
7001;SDS011;3541;53.230;10.518;2023-03-14T12:06:27;1.23;;;0.80;;
7001;SDS011;3541;53.230;10.518;2023-03-14T12:08:56;1.20;;;1.10;;
7001;SDS011;3541;53.230;10.518;2023-03-14T12:11:32;1.20;;;1.00;;
7001;SDS011;3541;53.230;10.518;2023-03-14T12:14:02;1.70;;;1.10;;
7001;SDS011;3541;53.230;10.518;2023-03-14T12:16:33;1.57;;;1.20;;
7001;SDS011;3541;53.230;10.518;2023-03-14T12:19:21;1.77;;;1.07;;
7001;SDS011;3541;53.230;10.518;2023-03-14T12:21:53;2.50;;;1.17;;
7001;SDS011;3541;53.230;10.518;2023-03-14T12:24:24;1.80;;;1.20;;
7001;SDS011;3541;53.230;10.518;2023-03-14T12:26:55;3.17;;;1.10;;
7001;SDS011;3541;53.230;10.518;2023-03-14T12:29:23;3.70;;;1.20;;
7001;SDS011;3541;53.230;10.518;2023-03-14T12:32:05;1.17;;;0.90;;
7001;SDS011;3541;53.230;10.518;2023-03-14T12:34:34;1.83;;;0.80;;
7001;SDS011;3541;53.230;10.518;2023-03-14T12:37:06;2.77;;;1.20;;
7001;SDS011;3541;53.230;10.518;2023-03-14T12:39:45;1.97;;;1.43;;
7001;SDS011;3541;53.230;10.518;2023-03-14T12:42:34;1.60;;;1.10;;
7001;SDS011;3541;53.230;10.518;2023-03-14T12:45:14;3.27;;;1.30;;
7001;SDS011;3541;53.230;10.518;2023-03-14T12:53:39;1.93;;;1.30;;
7001;SDS011;3541;53.230;10.518;2023-03-14T12:59:13;3.80;;;1.60;;
7001;SDS011;3541;53.230;10.518;2023-03-14T13:01:59;3.57;;;1.60;;
7001;SDS011;3541;53.230;10.518;2023-03-14T13:04:29;1.97;;;1.37;;
7001;SDS011;3541;53.230;10.518;2023-03-14T13:06:59;4.43;;;1.30;;
7001;SDS011;3541;53.230;10.518;2023-03-14T13:09:49;3.53;;;1.70;;
7001;SDS011;3541;53.230;10.518;2023-03-14T13:12:18;5.33;;;1.40;;
7001;SDS011;3541;53.230;10.518;2023-03-14T13:14:54;4.57;;;1.73;;
7001;SDS011;3541;53.230;10.518;2023-03-14T13:17:24;2.80;;;1.60;;
7001;SDS011;3541;53.230;10.518;2023-03-14T13:19:53;5.47;;;1.93;;
7001;SDS011;3541;53.230;10.518;2023-03-14T13:22:23;6.93;;;2.23;;
7001;SDS011;3541;53.230;10.518;2023-03-14T13:24:58;4.33;;;1.70;;
7001;SDS011;3541;53.230;10.518;2023-03-14T13:27:26;6.33;;;2.03;;
7001;SDS011;3541;53.230;10.518;2023-03-14T13:29:54;7.57;;;2.07;;
7001;SDS011;3541;53.230;10.518;2023-03-14T13:32:21;6.00;;;2.10;;
7001;SDS011;3541;53.230;10.518;2023-03-14T13:34:52;7.17;;;2.23;;
7001;SDS011;3541;53.230;10.518;2023-03-14T13:37:23;3.33;;;1.80;;
7001;SDS011;3541;53.230;10.518;2023-03-14T13:39:51;5.47;;;1.83;;
7001;SDS011;3541;53.230;10.518;2023-03-14T13:42:20;7.93;;;2.47;;
7001;SDS011;3541;53.230;10.518;2023-03-14T13:44:50;9.63;;;1.70;;
7001;SDS011;3541;53.230;10.518;2023-03-14T13:47:20;5.90;;;2.17;;
7001;SDS011;3541;53.230;10.518;2023-03-14T13:49:48;6.27;;;2.07;;
7001;SDS011;3541;53.230;10.518;2023-03-14T13:52:23;14.40;;;2.80;;
7001;SDS011;3541;53.230;10.518;2023-03-14T13:54:54;5.97;;;2.10;;
7001;SDS011;3541;53.230;10.518;2023-03-14T13:57:21;4.73;;;2.53;;
7001;SDS011;3541;53.230;10.518;2023-03-14T13:59:58;10.53;;;3.10;;
7001;SDS011;3541;53.230;10.518;2023-03-14T14:02:27;7.23;;;2.57;;
7001;SDS011;3541;53.230;10.518;2023-03-14T14:04:54;10.63;;;3.30;;
7001;SDS011;3541;53.230;10.518;2023-03-14T14:07:22;8.40;;;2.60;;
7001;SDS011;3541;53.230;10.518;2023-03-14T14:09:49;8.90;;;2.70;;
7001;SDS011;3541;53.230;10.518;2023-03-14T14:12:18;15.33;;;3.50;;
7001;SDS011;3541;53.230;10.518;2023-03-14T14:14:50;13.17;;;3.43;;
7001;SDS011;3541;53.230;10.518;2023-03-14T14:17:20;14.73;;;3.30;;
7001;SDS011;3541;53.230;10.518;2023-03-14T14:19:53;8.40;;;3.37;;
7001;SDS011;3541;53.230;10.518;2023-03-14T14:22:21;11.93;;;2.87;;
7001;SDS011;3541;53.230;10.518;2023-03-14T14:24:48;7.13;;;3.30;;
7001;SDS011;3541;53.230;10.518;2023-03-14T14:27:17;8.03;;;3.47;;
7001;SDS011;3541;53.230;10.518;2023-03-14T14:29:56;9.73;;;3.90;;
7001;SDS011;3541;53.230;10.518;2023-03-14T14:32:24;28.80;;;14.80;;
7001;SDS011;3541;53.230;10.518;2023-03-14T14:34:57;11.70;;;4.43;;
7001;SDS011;3541;53.230;10.518;2023-03-14T14:37:26;7.97;;;3.60;;
7001;SDS011;3541;53.230;10.518;2023-03-14T14:39:55;9.70;;;4.03;;
7001;SDS011;3541;53.230;10.518;2023-03-14T14:42:25;9.33;;;3.03;;
7001;SDS011;3541;53.230;10.518;2023-03-14T14:44:53;7.27;;;2.70;;
7001;SDS011;3541;53.230;10.518;2023-03-14T14:47:22;8.77;;;2.90;;
7001;SDS011;3541;53.230;10.518;2023-03-14T14:49:50;10.63;;;2.57;;
7001;SDS011;3541;53.230;10.518;2023-03-14T14:52:21;6.93;;;2.50;;
7001;SDS011;3541;53.230;10.518;2023-03-14T14:54:57;7.90;;;3.13;;
7001;SDS011;3541;53.230;10.518;2023-03-14T14:57:26;10.77;;;2.80;;
7001;SDS011;3541;53.230;10.518;2023-03-14T14:59:55;13.50;;;3.07;;
7001;SDS011;3541;53.230;10.518;2023-03-14T15:02:30;17.60;;;3.13;;
7001;SDS011;3541;53.230;10.518;2023-03-14T15:05:01;11.90;;;2.87;;
7001;SDS011;3541;53.230;10.518;2023-03-14T15:07:29;9.60;;;3.17;;
7001;SDS011;3541;53.230;10.518;2023-03-14T15:09:55;9.27;;;3.00;;
7001;SDS011;3541;53.230;10.518;2023-03-14T15:12:22;6.53;;;2.20;;
7001;SDS011;3541;53.230;10.518;2023-03-14T15:14:49;13.67;;;2.13;;
7001;SDS011;3541;53.230;10.518;2023-03-14T15:17:16;8.73;;;2.73;;
7001;SDS011;3541;53.230;10.518;2023-03-14T15:19:42;8.13;;;2.90;;